首页
METAR-TAF:

METAR-TAF

机场 :

里尔, 法国

纬度: 50-34N, 经度: 003-06E, 海拔: 48米

当前天气观测

该预报发布于38分钟前的09:30 UTC
风速11节,风向南转南东
温度 8°C
湿度 81%
气压 1002 hPa
能见度10公里或以上
1500米以下无云,无积雨云

METAR: LFQQ 220930Z AUTO 16011KT CAVOK 08/05 Q1002 TEMPO BKN012

时间: 11:08 (10:08 UTC)

预报

该预报发布于5小时和8分钟前的05:00 UTC
预报有效从22日的 06点(UTC)到 23日的 12点(UTC)
风速10节,风向南转南东
能见度10公里或以上
多云层高于1800英尺
短暂存在
从 22日的 06点(UTC)到 22日的 11点(UTC)
多云层高于1200英尺
成为
从 22日的 13点(UTC)到 22日的 16点(UTC)
风速12节,风向
短暂存在
从 23日的 03点(UTC)到 23日的 11点(UTC)
能見度: 4000
阴天层高于4000英尺

TAF: LFQQ 220500Z 2206/2312 16010KT 9999 BKN018 TEMPO 2206/2211 BKN012 BECMG 2213/2216 10012KT TEMPO 2303/2311 4000 RA OVC040

超过4000个机场的气象观测和天气预报(METAR&TAF报告)。

可查询的气象台以黄色和红色小点在地图上表示。

将鼠标移到小点上方,可查看气象台名称。

然后点击查看天气观测和预报。

如需切换地图:点击带黑十字的绿色按钮放大地图;点击带横线的绿色按钮缩小地图;或者点击绿色箭头查看邻近地区的地图。


METAR-TAF: